Aeroporto :
LOGIN :

Iscrizione | Disclaimer

   EN    FR    IT 

 










Sommario :    VFR   VFR Marginale   IFR   IFR Intensivo   IFR Molto Intensivo
Visibilità : 
Base nubi : 
>= 8 km
>= 3000ft
5 / 8 km
1000 / 3000 ft
1500m / 5 km
500 / 1000 ft
800 / 1500m
200 / 500 ft
< 800m
< 200 ft
Simboli :   Temporali  Nebbia  Neve Forte  Precipitazioni Forti  Vento > 20 kt
SIGMETs :   Varie  Temporali  Ghiacco  Turbolenza  Onda orograficha  Ceneri Vulcaniche






- Altitudine del aeroporto : 290 ft
- Codice IATA : OSI


LDOS - Osijek

ULTIMO METAR :
  • 221800Z 27005KT CAVOK M02/M03 Q1029

METARs OBSOLETI :
  • 221730Z 30006KT CAVOK M01/M02 Q1029
  • 221700Z 31007KT CAVOK M01/M02 Q1029
  • 221630Z 29007KT 7000 NSC M01/M02 Q1029
  • 221600Z 29007KT 4000 BR NSC M00/M01 Q1028
  • 221530Z 27004KT 5000 BR NSC 00/M01 Q1028

TAF TAF LDOS
Valido dal 22 a 18 ore il 23 a 18 ore UTC


221725Z 2218/2318 32010KT 6000 NSC TX02/2314Z TNM05/2306Z
BECMG 2301/2303 29004KT 2000 BR BKN010
PROB30
TEMPO 2303/2309 0400 FZFG OVC002
BECMG 2309/2311 6000 NSW SCT015



MetMap, La meteo Aeronautica in un colpo d'occhio ! - Copyright ORBIFLY Dicembre 2007 - Disclaimer

ORBIFLY MET'MAP TEAM :

Programmazione e sviluppo : Alexandra Zaïnal
Concezione : Baudouin d'Aumeries
Aiuto per la programmazione : Marc-Olivier Méhu
Supporto tecnico e logistico : Manuel Goepfert
Aiuto per la traduzione : Arnaldo La Scala

Contatto : metmap@orbifly.com




FONTI E CREDITI :

   NOAA